sensor_id;sensor_type;location;lat;lon;timestamp;pressure;altitude;pressure_sealevel;temperature;humidity
9335;BME280;4706;41.844;26.082;2023-04-28T00:01:30;100949.63;;;14.54;71.61
9335;BME280;4706;41.844;26.082;2023-04-28T00:03:56;100951.41;;;14.58;71.66
9335;BME280;4706;41.844;26.082;2023-04-28T00:06:22;100947.03;;;14.57;71.55
9335;BME280;4706;41.844;26.082;2023-04-28T00:08:48;100947.34;;;14.56;71.43
9335;BME280;4706;41.844;26.082;2023-04-28T00:11:13;100960.25;;;14.61;70.98
9335;BME280;4706;41.844;26.082;2023-04-28T00:13:39;100953.19;;;14.54;70.98
9335;BME280;4706;41.844;26.082;2023-04-28T00:16:05;100955.66;;;14.56;71.27
9335;BME280;4706;41.844;26.082;2023-04-28T00:18:30;100964.09;;;14.51;71.62
9335;BME280;4706;41.844;26.082;2023-04-28T00:20:57;100956.13;;;14.49;71.58
9335;BME280;4706;41.844;26.082;2023-04-28T00:23:22;100960.72;;;14.40;72.05
9335;BME280;4706;41.844;26.082;2023-04-28T00:25:52;100958.94;;;14.36;72.78
9335;BME280;4706;41.844;26.082;2023-04-28T00:28:17;100953.38;;;14.36;72.53
9335;BME280;4706;41.844;26.082;2023-04-28T00:30:43;100959.44;;;14.38;73.20
9335;BME280;4706;41.844;26.082;2023-04-28T00:33:08;100971.50;;;14.42;73.00
9335;BME280;4706;41.844;26.082;2023-04-28T00:35:34;100973.47;;;14.41;72.66
9335;BME280;4706;41.844;26.082;2023-04-28T00:37:59;100967.41;;;14.39;72.53
9335;BME280;4706;41.844;26.082;2023-04-28T00:40:35;100983.53;;;14.37;71.99
9335;BME280;4706;41.844;26.082;2023-04-28T00:43:01;100970.63;;;14.32;72.72
9335;BME280;4706;41.844;26.082;2023-04-28T00:45:27;100976.34;;;14.36;71.98
9335;BME280;4706;41.844;26.082;2023-04-28T00:47:53;100977.63;;;14.30;72.78
9335;BME280;4706;41.844;26.082;2023-04-28T00:50:20;100985.03;;;14.21;72.80
9335;BME280;4706;41.844;26.082;2023-04-28T00:52:46;100986.38;;;14.23;73.53
9335;BME280;4706;41.844;26.082;2023-04-28T00:55:14;100982.91;;;14.18;73.37
9335;BME280;4706;41.844;26.082;2023-04-28T00:57:41;100985.22;;;14.24;73.09
9335;BME280;4706;41.844;26.082;2023-04-28T01:00:07;100984.78;;;14.31;73.19
9335;BME280;4706;41.844;26.082;2023-04-28T01:02:34;100981.81;;;14.27;73.71
9335;BME280;4706;41.844;26.082;2023-04-28T01:05:00;100985.13;;;14.29;73.15
9335;BME280;4706;41.844;26.082;2023-04-28T01:07:26;100994.59;;;14.37;73.90
9335;BME280;4706;41.844;26.082;2023-04-28T01:09:53;100989.50;;;14.30;74.16
9335;BME280;4706;41.844;26.082;2023-04-28T01:12:18;100987.94;;;14.16;74.21
9335;BME280;4706;41.844;26.082;2023-04-28T01:14:44;100992.97;;;14.14;74.51
9335;BME280;4706;41.844;26.082;2023-04-28T01:17:10;100998.81;;;14.12;74.84
9335;BME280;4706;41.844;26.082;2023-04-28T01:19:36;100993.59;;;14.11;74.63
9335;BME280;4706;41.844;26.082;2023-04-28T01:22:01;100998.09;;;14.06;75.34
9335;BME280;4706;41.844;26.082;2023-04-28T01:24:27;101004.88;;;14.14;74.95
9335;BME280;4706;41.844;26.082;2023-04-28T01:26:53;101002.09;;;14.14;75.33
9335;BME280;4706;41.844;26.082;2023-04-28T01:29:18;101003.41;;;14.17;75.40
9335;BME280;4706;41.844;26.082;2023-04-28T01:31:44;100998.69;;;14.17;74.82
9335;BME280;4706;41.844;26.082;2023-04-28T01:34:09;100988.56;;;14.13;74.65
9335;BME280;4706;41.844;26.082;2023-04-28T01:36:35;100994.22;;;14.07;75.00
9335;BME280;4706;41.844;26.082;2023-04-28T01:39:00;101002.63;;;14.02;74.81
9335;BME280;4706;41.844;26.082;2023-04-28T01:41:26;101000.13;;;13.92;74.93
9335;BME280;4706;41.844;26.082;2023-04-28T01:43:51;101003.78;;;14.01;74.70
9335;BME280;4706;41.844;26.082;2023-04-28T01:46:17;101009.00;;;14.03;75.14
9335;BME280;4706;41.844;26.082;2023-04-28T01:48:43;101007.06;;;14.03;75.73
9335;BME280;4706;41.844;26.082;2023-04-28T01:51:08;101003.34;;;14.08;76.01
9335;BME280;4706;41.844;26.082;2023-04-28T01:53:34;101009.16;;;14.29;76.23
9335;BME280;4706;41.844;26.082;2023-04-28T01:55:59;100996.28;;;14.02;76.53
9335;BME280;4706;41.844;26.082;2023-04-28T01:58:25;101003.97;;;14.05;76.44
9335;BME280;4706;41.844;26.082;2023-04-28T02:00:50;101003.53;;;14.12;76.27
9335;BME280;4706;41.844;26.082;2023-04-28T02:03:16;101003.97;;;14.05;76.19
9335;BME280;4706;41.844;26.082;2023-04-28T02:05:41;101015.22;;;14.08;76.55
9335;BME280;4706;41.844;26.082;2023-04-28T02:08:07;101020.22;;;14.06;76.61
9335;BME280;4706;41.844;26.082;2023-04-28T02:10:33;101017.16;;;14.08;77.11
9335;BME280;4706;41.844;26.082;2023-04-28T02:12:58;101002.97;;;14.01;77.27
9335;BME280;4706;41.844;26.082;2023-04-28T02:15:24;101016.75;;;14.15;77.05
9335;BME280;4706;41.844;26.082;2023-04-28T02:17:49;101019.38;;;14.20;77.21
9335;BME280;4706;41.844;26.082;2023-04-28T02:20:15;101018.19;;;14.12;77.20
9335;BME280;4706;41.844;26.082;2023-04-28T02:22:40;101023.34;;;14.27;76.54
9335;BME280;4706;41.844;26.082;2023-04-28T02:25:07;101032.25;;;14.24;76.48
9335;BME280;4706;41.844;26.082;2023-04-28T02:27:34;101041.38;;;14.25;76.05
9335;BME280;4706;41.844;26.082;2023-04-28T02:30:04;101044.28;;;14.20;75.90
9335;BME280;4706;41.844;26.082;2023-04-28T02:32:30;101035.47;;;14.18;75.67
9335;BME280;4706;41.844;26.082;2023-04-28T02:34:55;101038.34;;;14.13;75.21
9335;BME280;4706;41.844;26.082;2023-04-28T02:37:21;101043.13;;;14.21;75.11
9335;BME280;4706;41.844;26.082;2023-04-28T02:39:47;101054.00;;;14.17;74.21
9335;BME280;4706;41.844;26.082;2023-04-28T02:42:12;101055.34;;;14.20;73.41
9335;BME280;4706;41.844;26.082;2023-04-28T02:44:38;101061.50;;;14.17;72.51
9335;BME280;4706;41.844;26.082;2023-04-28T02:47:04;101053.31;;;14.12;71.52
9335;BME280;4706;41.844;26.082;2023-04-28T02:49:29;101052.50;;;14.11;71.49
9335;BME280;4706;41.844;26.082;2023-04-28T02:51:55;101074.13;;;14.09;73.43
9335;BME280;4706;41.844;26.082;2023-04-28T02:54:20;101067.72;;;14.00;73.71
9335;BME280;4706;41.844;26.082;2023-04-28T02:56:53;101082.09;;;13.88;74.55
9335;BME280;4706;41.844;26.082;2023-04-28T02:59:18;101089.03;;;13.99;74.36
9335;BME280;4706;41.844;26.082;2023-04-28T03:01:44;101081.03;;;13.98;74.82
9335;BME280;4706;41.844;26.082;2023-04-28T03:04:10;101083.09;;;13.78;76.18
9335;BME280;4706;41.844;26.082;2023-04-28T03:06:35;101088.84;;;13.68;77.73
9335;BME280;4706;41.844;26.082;2023-04-28T03:09:01;101086.53;;;13.48;79.29
9335;BME280;4706;41.844;26.082;2023-04-28T03:11:26;101101.78;;;13.45;79.58
9335;BME280;4706;41.844;26.082;2023-04-28T03:13:52;101101.97;;;13.35;80.06
9335;BME280;4706;41.844;26.082;2023-04-28T03:16:17;101109.56;;;13.43;79.38
9335;BME280;4706;41.844;26.082;2023-04-28T03:18:43;101114.56;;;13.55;79.08
9335;BME280;4706;41.844;26.082;2023-04-28T03:21:08;101112.72;;;13.64;78.07
9335;BME280;4706;41.844;26.082;2023-04-28T03:23:33;101116.53;;;13.54;79.08
9335;BME280;4706;41.844;26.082;2023-04-28T03:25:59;101114.88;;;13.53;77.78
9335;BME280;4706;41.844;26.082;2023-04-28T03:28:24;101132.78;;;13.56;78.05
9335;BME280;4706;41.844;26.082;2023-04-28T03:30:50;101135.88;;;13.54;78.60
9335;BME280;4706;41.844;26.082;2023-04-28T03:33:16;101145.19;;;13.58;77.74
9335;BME280;4706;41.844;26.082;2023-04-28T03:35:41;101140.56;;;13.68;75.79
9335;BME280;4706;41.844;26.082;2023-04-28T03:38:07;101152.53;;;13.63;76.33
9335;BME280;4706;41.844;26.082;2023-04-28T03:40:32;101161.25;;;13.56;76.80
9335;BME280;4706;41.844;26.082;2023-04-28T03:42:58;101167.38;;;13.53;77.27
9335;BME280;4706;41.844;26.082;2023-04-28T03:45:25;101160.22;;;13.52;75.42
9335;BME280;4706;41.844;26.082;2023-04-28T03:47:50;101172.09;;;13.67;74.82
9335;BME280;4706;41.844;26.082;2023-04-28T03:50:16;101170.56;;;13.74;73.34
9335;BME280;4706;41.844;26.082;2023-04-28T03:52:43;101172.41;;;13.79;70.73
9335;BME280;4706;41.844;26.082;2023-04-28T03:55:08;101168.13;;;13.73;68.49
9335;BME280;4706;41.844;26.082;2023-04-28T03:57:34;101185.94;;;13.80;68.26
9335;BME280;4706;41.844;26.082;2023-04-28T04:00:00;101186.03;;;13.75;67.50
9335;BME280;4706;41.844;26.082;2023-04-28T04:02:26;101190.13;;;13.78;67.27
9335;BME280;4706;41.844;26.082;2023-04-28T04:04:51;101187.56;;;13.68;66.08
9335;BME280;4706;41.844;26.082;2023-04-28T04:07:17;101179.19;;;13.73;64.94
9335;BME280;4706;41.844;26.082;2023-04-28T04:09:42;101194.13;;;13.85;63.81
9335;BME280;4706;41.844;26.082;2023-04-28T04:12:07;101197.47;;;13.69;63.98
9335;BME280;4706;41.844;26.082;2023-04-28T04:14:33;101200.47;;;13.58;64.44
9335;BME280;4706;41.844;26.082;2023-04-28T04:16:58;101200.34;;;13.64;64.89
9335;BME280;4706;41.844;26.082;2023-04-28T04:19:24;101186.72;;;13.53;64.87
9335;BME280;4706;41.844;26.082;2023-04-28T04:21:51;101196.03;;;13.57;65.60
9335;BME280;4706;41.844;26.082;2023-04-28T04:24:17;101187.75;;;13.57;65.42
9335;BME280;4706;41.844;26.082;2023-04-28T04:26:42;101200.06;;;13.79;65.46
9335;BME280;4706;41.844;26.082;2023-04-28T04:29:08;101195.03;;;13.81;65.19
9335;BME280;4706;41.844;26.082;2023-04-28T04:31:33;101197.28;;;13.79;65.28
9335;BME280;4706;41.844;26.082;2023-04-28T04:33:59;101204.16;;;13.81;65.62
9335;BME280;4706;41.844;26.082;2023-04-28T04:36:24;101207.22;;;13.80;65.61
9335;BME280;4706;41.844;26.082;2023-04-28T04:38:50;101190.31;;;13.68;66.57
9335;BME280;4706;41.844;26.082;2023-04-28T04:41:17;101208.13;;;13.75;66.01
9335;BME280;4706;41.844;26.082;2023-04-28T04:43:45;101215.50;;;13.80;64.89
9335;BME280;4706;41.844;26.082;2023-04-28T04:46:10;101217.16;;;13.81;64.40
9335;BME280;4706;41.844;26.082;2023-04-28T04:48:36;101222.38;;;13.96;65.32
9335;BME280;4706;41.844;26.082;2023-04-28T04:51:01;101217.69;;;13.97;64.60
9335;BME280;4706;41.844;26.082;2023-04-28T04:53:27;101216.53;;;13.84;64.77
9335;BME280;4706;41.844;26.082;2023-04-28T04:55:52;101224.31;;;14.09;64.60
9335;BME280;4706;41.844;26.082;2023-04-28T04:58:18;101231.19;;;14.26;64.80
9335;BME280;4706;41.844;26.082;2023-04-28T05:00:43;101232.59;;;14.23;64.41
9335;BME280;4706;41.844;26.082;2023-04-28T05:03:09;101241.72;;;14.24;64.55
9335;BME280;4706;41.844;26.082;2023-04-28T05:05:35;101242.25;;;14.12;63.98
9335;BME280;4706;41.844;26.082;2023-04-28T05:08:01;101248.81;;;14.30;64.45
9335;BME280;4706;41.844;26.082;2023-04-28T05:10:27;101258.41;;;14.32;65.24
9335;BME280;4706;41.844;26.082;2023-04-28T05:12:52;101261.50;;;14.45;64.62
9335;BME280;4706;41.844;26.082;2023-04-28T05:15:17;101254.75;;;14.37;63.43
9335;BME280;4706;41.844;26.082;2023-04-28T05:17:43;101263.84;;;14.51;61.59
9335;BME280;4706;41.844;26.082;2023-04-28T05:20:09;101270.63;;;14.31;59.71
9335;BME280;4706;41.844;26.082;2023-04-28T05:22:34;101265.56;;;14.47;59.63
9335;BME280;4706;41.844;26.082;2023-04-28T05:25:00;101273.50;;;14.54;58.35
9335;BME280;4706;41.844;26.082;2023-04-28T05:27:25;101279.56;;;14.56;59.32
9335;BME280;4706;41.844;26.082;2023-04-28T05:29:51;101281.38;;;14.61;57.85
9335;BME280;4706;41.844;26.082;2023-04-28T05:32:17;101269.69;;;14.64;57.46
9335;BME280;4706;41.844;26.082;2023-04-28T05:34:42;101282.75;;;14.86;57.20
9335;BME280;4706;41.844;26.082;2023-04-28T05:37:07;101282.94;;;14.89;54.63
9335;BME280;4706;41.844;26.082;2023-04-28T05:39:34;101283.31;;;14.96;56.34
9335;BME280;4706;41.844;26.082;2023-04-28T05:41:59;101288.44;;;15.03;54.93
9335;BME280;4706;41.844;26.082;2023-04-28T05:44:25;101283.09;;;15.06;51.41
9335;BME280;4706;41.844;26.082;2023-04-28T05:46:50;101279.56;;;15.15;51.37
9335;BME280;4706;41.844;26.082;2023-04-28T05:49:16;101285.00;;;15.42;50.68
9335;BME280;4706;41.844;26.082;2023-04-28T05:51:41;101280.03;;;15.84;52.00
9335;BME280;4706;41.844;26.082;2023-04-28T05:54:07;101282.25;;;16.05;49.36
9335;BME280;4706;41.844;26.082;2023-04-28T05:56:33;101279.41;;;16.36;50.25
9335;BME280;4706;41.844;26.082;2023-04-28T05:58:58;101285.19;;;16.65;49.64
9335;BME280;4706;41.844;26.082;2023-04-28T06:01:28;101287.47;;;16.72;45.04
9335;BME280;4706;41.844;26.082;2023-04-28T06:03:54;101295.63;;;16.60;42.21
9335;BME280;4706;41.844;26.082;2023-04-28T06:06:22;101291.84;;;16.47;43.78
9335;BME280;4706;41.844;26.082;2023-04-28T06:08:47;101299.19;;;16.43;43.66
9335;BME280;4706;41.844;26.082;2023-04-28T06:11:13;101295.13;;;16.58;43.97
9335;BME280;4706;41.844;26.082;2023-04-28T06:13:38;101303.78;;;16.47;43.32
9335;BME280;4706;41.844;26.082;2023-04-28T06:16:04;101290.66;;;16.31;44.30
9335;BME280;4706;41.844;26.082;2023-04-28T06:18:29;101310.38;;;15.58;41.66
9335;BME280;4706;41.844;26.082;2023-04-28T06:20:58;101310.38;;;15.81;42.86
9335;BME280;4706;41.844;26.082;2023-04-28T06:23:23;101308.78;;;15.88;40.46
9335;BME280;4706;41.844;26.082;2023-04-28T06:25:49;101315.56;;;16.13;41.74
9335;BME280;4706;41.844;26.082;2023-04-28T06:28:14;101303.53;;;15.87;40.38
9335;BME280;4706;41.844;26.082;2023-04-28T06:30:40;101312.53;;;15.61;39.87
9335;BME280;4706;41.844;26.082;2023-04-28T06:33:05;101308.81;;;15.43;42.63
9335;BME280;4706;41.844;26.082;2023-04-28T06:35:32;101317.59;;;15.45;41.68
9335;BME280;4706;41.844;26.082;2023-04-28T06:38:01;101314.63;;;15.19;42.75
9335;BME280;4706;41.844;26.082;2023-04-28T06:40:27;101310.63;;;15.48;44.80
9335;BME280;4706;41.844;26.082;2023-04-28T06:42:53;101309.63;;;15.66;44.83
9335;BME280;4706;41.844;26.082;2023-04-28T06:45:19;101309.84;;;15.78;43.29
9335;BME280;4706;41.844;26.082;2023-04-28T06:47:44;101314.69;;;15.95;42.45
9335;BME280;4706;41.844;26.082;2023-04-28T06:50:10;101300.25;;;16.16;42.60
9335;BME280;4706;41.844;26.082;2023-04-28T06:52:36;101302.03;;;16.20;41.82
9335;BME280;4706;41.844;26.082;2023-04-28T06:55:06;101312.84;;;16.22;42.39
9335;BME280;4706;41.844;26.082;2023-04-28T06:57:33;101305.97;;;16.19;41.21
9335;BME280;4706;41.844;26.082;2023-04-28T06:59:59;101293.91;;;16.24;39.14
9335;BME280;4706;41.844;26.082;2023-04-28T07:02:25;101309.09;;;16.26;40.31
9335;BME280;4706;41.844;26.082;2023-04-28T07:04:51;101310.25;;;16.25;40.50
9335;BME280;4706;41.844;26.082;2023-04-28T07:07:17;101312.22;;;16.25;40.87
9335;BME280;4706;41.844;26.082;2023-04-28T07:09:43;101317.44;;;16.26;41.04
9335;BME280;4706;41.844;26.082;2023-04-28T07:12:08;101312.94;;;16.08;36.78
9335;BME280;4706;41.844;26.082;2023-04-28T07:14:34;101310.31;;;16.03;38.61
9335;BME280;4706;41.844;26.082;2023-04-28T07:16:59;101313.75;;;16.09;40.05
9335;BME280;4706;41.844;26.082;2023-04-28T07:19:25;101317.41;;;16.18;39.71
9335;BME280;4706;41.844;26.082;2023-04-28T07:21:50;101314.75;;;16.13;39.65
9335;BME280;4706;41.844;26.082;2023-04-28T07:24:16;101323.78;;;16.27;39.61
9335;BME280;4706;41.844;26.082;2023-04-28T07:26:41;101319.44;;;16.43;39.36
9335;BME280;4706;41.844;26.082;2023-04-28T07:29:07;101313.47;;;16.59;38.27
9335;BME280;4706;41.844;26.082;2023-04-28T07:31:33;101323.13;;;16.70;37.37
9335;BME280;4706;41.844;26.082;2023-04-28T07:33:59;101318.03;;;16.72;37.71
9335;BME280;4706;41.844;26.082;2023-04-28T07:36:25;101321.19;;;16.31;34.93
9335;BME280;4706;41.844;26.082;2023-04-28T07:38:51;101319.81;;;16.11;36.85
9335;BME280;4706;41.844;26.082;2023-04-28T07:41:16;101327.19;;;16.15;35.31
9335;BME280;4706;41.844;26.082;2023-04-28T07:43:43;101318.84;;;16.15;36.47
9335;BME280;4706;41.844;26.082;2023-04-28T07:46:08;101320.22;;;16.35;35.27
9335;BME280;4706;41.844;26.082;2023-04-28T07:48:34;101323.19;;;16.39;36.05
9335;BME280;4706;41.844;26.082;2023-04-28T07:51:00;101318.25;;;16.27;36.27
9335;BME280;4706;41.844;26.082;2023-04-28T07:53:26;101319.13;;;16.54;35.00
9335;BME280;4706;41.844;26.082;2023-04-28T07:55:51;101310.81;;;16.62;35.34
9335;BME280;4706;41.844;26.082;2023-04-28T07:58:16;101317.63;;;16.39;33.76
9335;BME280;4706;41.844;26.082;2023-04-28T08:00:42;101313.94;;;16.52;36.00
9335;BME280;4706;41.844;26.082;2023-04-28T08:03:08;101299.06;;;16.65;35.59
9335;BME280;4706;41.844;26.082;2023-04-28T08:05:33;101306.00;;;16.94;36.99
9335;BME280;4706;41.844;26.082;2023-04-28T08:07:59;101304.69;;;17.17;36.22
9335;BME280;4706;41.844;26.082;2023-04-28T08:10:24;101303.88;;;17.43;32.87
9335;BME280;4706;41.844;26.082;2023-04-28T08:12:51;101293.88;;;17.33;32.19
9335;BME280;4706;41.844;26.082;2023-04-28T08:15:16;101300.41;;;17.37;33.15
9335;BME280;4706;41.844;26.082;2023-04-28T08:17:42;101290.88;;;17.82;33.07
9335;BME280;4706;41.844;26.082;2023-04-28T08:20:08;101290.00;;;17.99;33.14
9335;BME280;4706;41.844;26.082;2023-04-28T08:22:34;101289.91;;;18.54;32.96
9335;BME280;4706;41.844;26.082;2023-04-28T08:24:59;101283.44;;;19.25;32.33
9335;BME280;4706;41.844;26.082;2023-04-28T08:27:25;101289.00;;;19.46;32.73
9335;BME280;4706;41.844;26.082;2023-04-28T08:29:51;101273.16;;;19.38;31.82
9335;BME280;4706;41.844;26.082;2023-04-28T08:32:17;101267.31;;;19.31;30.25
9335;BME280;4706;41.844;26.082;2023-04-28T08:34:42;101271.44;;;18.91;30.08
9335;BME280;4706;41.844;26.082;2023-04-28T08:37:08;101277.75;;;18.80;30.99
9335;BME280;4706;41.844;26.082;2023-04-28T08:39:33;101265.00;;;18.79;32.18
9335;BME280;4706;41.844;26.082;2023-04-28T08:42:03;101256.38;;;18.92;33.22
9335;BME280;4706;41.844;26.082;2023-04-28T08:44:38;101261.47;;;19.45;31.25
9335;BME280;4706;41.844;26.082;2023-04-28T08:47:11;101250.41;;;20.18;31.73
9335;BME280;4706;41.844;26.082;2023-04-28T08:49:37;101249.94;;;20.93;31.27
9335;BME280;4706;41.844;26.082;2023-04-28T08:52:10;101246.25;;;20.89;30.34
9335;BME280;4706;41.844;26.082;2023-04-28T08:54:37;101251.41;;;20.75;29.74
9335;BME280;4706;41.844;26.082;2023-04-28T08:57:03;101234.34;;;20.52;30.63
9335;BME280;4706;41.844;26.082;2023-04-28T08:59:29;101250.97;;;20.36;31.99
9335;BME280;4706;41.844;26.082;2023-04-28T09:01:55;101240.72;;;20.16;32.46
9335;BME280;4706;41.844;26.082;2023-04-28T09:04:21;101246.34;;;20.03;31.97
9335;BME280;4706;41.844;26.082;2023-04-28T09:06:47;101244.09;;;19.84;32.02
9335;BME280;4706;41.844;26.082;2023-04-28T09:12:04;101243.25;;;19.26;30.69
9335;BME280;4706;41.844;26.082;2023-04-28T09:14:31;101239.78;;;18.75;29.99
9335;BME280;4706;41.844;26.082;2023-04-28T09:16:57;101235.94;;;18.59;31.36
9335;BME280;4706;41.844;26.082;2023-04-28T09:19:24;101241.38;;;18.55;31.95
9335;BME280;4706;41.844;26.082;2023-04-28T09:21:57;101226.81;;;18.50;33.51
9335;BME280;4706;41.844;26.082;2023-04-28T09:24:33;101232.22;;;18.76;33.23
9335;BME280;4706;41.844;26.082;2023-04-28T09:27:03;101219.13;;;19.09;33.90
9335;BME280;4706;41.844;26.082;2023-04-28T09:29:29;101218.47;;;19.25;34.16
9335;BME280;4706;41.844;26.082;2023-04-28T09:32:15;101226.97;;;19.28;32.72
9335;BME280;4706;41.844;26.082;2023-04-28T09:37:16;101230.38;;;19.01;32.48
9335;BME280;4706;41.844;26.082;2023-04-28T09:39:43;101230.13;;;18.93;33.34
9335;BME280;4706;41.844;26.082;2023-04-28T09:42:09;101223.50;;;18.98;32.48
9335;BME280;4706;41.844;26.082;2023-04-28T09:44:35;101221.06;;;18.97;33.95
9335;BME280;4706;41.844;26.082;2023-04-28T09:47:18;101222.47;;;19.03;33.05
9335;BME280;4706;41.844;26.082;2023-04-28T09:49:55;101209.00;;;19.05;32.44
9335;BME280;4706;41.844;26.082;2023-04-28T09:52:24;101206.22;;;19.05;33.37
9335;BME280;4706;41.844;26.082;2023-04-28T09:54:52;101203.59;;;19.21;33.30
9335;BME280;4706;41.844;26.082;2023-04-28T09:57:19;101186.06;;;19.65;32.87
9335;BME280;4706;41.844;26.082;2023-04-28T09:59:52;101183.41;;;19.94;33.13
9335;BME280;4706;41.844;26.082;2023-04-28T10:02:20;101184.63;;;20.33;32.71
9335;BME280;4706;41.844;26.082;2023-04-28T10:04:49;101190.38;;;20.65;30.94
9335;BME280;4706;41.844;26.082;2023-04-28T10:07:17;101185.06;;;20.59;30.65
9335;BME280;4706;41.844;26.082;2023-04-28T10:09:43;101179.81;;;20.46;30.38
9335;BME280;4706;41.844;26.082;2023-04-28T10:12:13;101182.53;;;20.30;30.46
9335;BME280;4706;41.844;26.082;2023-04-28T10:14:40;101181.97;;;20.00;31.60
9335;BME280;4706;41.844;26.082;2023-04-28T10:17:06;101180.81;;;20.01;32.16
9335;BME280;4706;41.844;26.082;2023-04-28T10:19:33;101174.75;;;20.11;32.01
9335;BME280;4706;41.844;26.082;2023-04-28T10:22:31;101183.72;;;20.17;31.00
9335;BME280;4706;41.844;26.082;2023-04-28T10:27:45;101173.97;;;19.74;30.39
9335;BME280;4706;41.844;26.082;2023-04-28T10:30:16;101175.00;;;19.69;32.29
9335;BME280;4706;41.844;26.082;2023-04-28T10:32:42;101168.84;;;19.63;32.66
9335;BME280;4706;41.844;26.082;2023-04-28T10:38:05;101164.56;;;19.78;30.78
9335;BME280;4706;41.844;26.082;2023-04-28T10:40:37;101160.00;;;19.74;32.02
9335;BME280;4706;41.844;26.082;2023-04-28T10:43:04;101157.00;;;19.91;33.01
9335;BME280;4706;41.844;26.082;2023-04-28T10:48:14;101166.41;;;19.86;33.43
9335;BME280;4706;41.844;26.082;2023-04-28T10:58:38;101149.50;;;20.20;33.36
9335;BME280;4706;41.844;26.082;2023-04-28T11:06:33;101147.34;;;20.41;32.06
9335;BME280;4706;41.844;26.082;2023-04-28T11:09:01;101145.72;;;20.40;32.69
9335;BME280;4706;41.844;26.082;2023-04-28T11:11:34;101146.38;;;20.90;32.33
9335;BME280;4706;41.844;26.082;2023-04-28T11:19:24;101139.97;;;22.51;28.41
9335;BME280;4706;41.844;26.082;2023-04-28T11:21:51;101140.56;;;22.99;29.12
9335;BME280;4706;41.844;26.082;2023-04-28T11:24:17;101136.72;;;23.30;27.57
9335;BME280;4706;41.844;26.082;2023-04-28T11:26:43;101136.97;;;23.21;26.71
9335;BME280;4706;41.844;26.082;2023-04-28T11:29:10;101139.84;;;23.25;28.80
9335;BME280;4706;41.844;26.082;2023-04-28T11:31:36;101126.03;;;23.16;26.86
9335;BME280;4706;41.844;26.082;2023-04-28T11:34:11;101136.91;;;23.41;27.79
9335;BME280;4706;41.844;26.082;2023-04-28T11:36:39;101126.69;;;23.29;27.82
9335;BME280;4706;41.844;26.082;2023-04-28T11:39:07;101128.25;;;23.26;27.22
9335;BME280;4706;41.844;26.082;2023-04-28T11:41:34;101134.09;;;23.41;25.57
9335;BME280;4706;41.844;26.082;2023-04-28T11:44:14;101123.94;;;23.56;25.17
9335;BME280;4706;41.844;26.082;2023-04-28T11:46:48;101126.81;;;23.13;26.85
9335;BME280;4706;41.844;26.082;2023-04-28T11:51:56;101118.81;;;23.15;27.00
9335;BME280;4706;41.844;26.082;2023-04-28T11:54:26;101131.78;;;23.46;27.69
9335;BME280;4706;41.844;26.082;2023-04-28T11:56:54;101121.13;;;23.33;27.16
9335;BME280;4706;41.844;26.082;2023-04-28T11:59:25;101121.31;;;23.20;27.67
9335;BME280;4706;41.844;26.082;2023-04-28T12:02:07;101112.50;;;23.45;26.57
9335;BME280;4706;41.844;26.082;2023-04-28T12:04:33;101121.13;;;23.33;26.24
9335;BME280;4706;41.844;26.082;2023-04-28T12:09:33;101114.06;;;23.42;27.38
9335;BME280;4706;41.844;26.082;2023-04-28T12:12:11;101112.66;;;23.29;26.96
9335;BME280;4706;41.844;26.082;2023-04-28T12:14:56;101114.88;;;22.97;27.25
9335;BME280;4706;41.844;26.082;2023-04-28T12:19:52;101110.47;;;22.57;28.21
9335;BME280;4706;41.844;26.082;2023-04-28T12:22:18;101111.56;;;22.33;27.65
9335;BME280;4706;41.844;26.082;2023-04-28T12:24:44;101108.31;;;21.96;27.17
9335;BME280;4706;41.844;26.082;2023-04-28T12:27:19;101104.31;;;21.46;28.57
9335;BME280;4706;41.844;26.082;2023-04-28T12:29:49;101094.28;;;21.29;29.51
9335;BME280;4706;41.844;26.082;2023-04-28T12:32:15;101093.13;;;21.30;30.29
9335;BME280;4706;41.844;26.082;2023-04-28T12:34:44;101098.13;;;21.37;30.01
9335;BME280;4706;41.844;26.082;2023-04-28T12:37:10;101095.84;;;21.42;29.94
9335;BME280;4706;41.844;26.082;2023-04-28T12:39:38;101090.88;;;21.36;29.41
9335;BME280;4706;41.844;26.082;2023-04-28T12:42:04;101079.41;;;21.41;29.08
9335;BME280;4706;41.844;26.082;2023-04-28T12:44:37;101098.09;;;21.52;28.84
9335;BME280;4706;41.844;26.082;2023-04-28T12:47:07;101088.44;;;21.34;29.31
9335;BME280;4706;41.844;26.082;2023-04-28T12:49:34;101082.81;;;21.18;30.58
9335;BME280;4706;41.844;26.082;2023-04-28T12:52:00;101071.78;;;21.09;29.78
9335;BME280;4706;41.844;26.082;2023-04-28T12:54:26;101072.25;;;21.12;29.95
9335;BME280;4706;41.844;26.082;2023-04-28T12:56:51;101066.47;;;21.20;30.83
9335;BME280;4706;41.844;26.082;2023-04-28T12:59:19;101065.69;;;21.36;31.21
9335;BME280;4706;41.844;26.082;2023-04-28T13:01:45;101063.41;;;21.57;30.67
9335;BME280;4706;41.844;26.082;2023-04-28T13:04:10;101061.22;;;21.66;29.58
9335;BME280;4706;41.844;26.082;2023-04-28T13:06:37;101044.06;;;21.68;29.32
9335;BME280;4706;41.844;26.082;2023-04-28T13:09:02;101056.19;;;21.91;29.57
9335;BME280;4706;41.844;26.082;2023-04-28T13:11:28;101044.94;;;22.07;28.90
9335;BME280;4706;41.844;26.082;2023-04-28T13:13:54;101049.00;;;22.10;26.94
9335;BME280;4706;41.844;26.082;2023-04-28T13:16:21;101039.47;;;21.95;27.77
9335;BME280;4706;41.844;26.082;2023-04-28T13:18:49;101038.00;;;21.81;28.29
9335;BME280;4706;41.844;26.082;2023-04-28T13:21:16;101029.59;;;21.81;29.37
9335;BME280;4706;41.844;26.082;2023-04-28T13:23:41;101022.94;;;21.70;29.12
9335;BME280;4706;41.844;26.082;2023-04-28T13:26:07;101023.03;;;21.58;30.17
9335;BME280;4706;41.844;26.082;2023-04-28T13:28:32;101028.38;;;21.63;29.68
9335;BME280;4706;41.844;26.082;2023-04-28T13:30:58;101022.22;;;21.57;29.76
9335;BME280;4706;41.844;26.082;2023-04-28T13:33:23;101023.75;;;21.55;30.76
9335;BME280;4706;41.844;26.082;2023-04-28T13:35:56;101019.00;;;21.55;30.45
9335;BME280;4706;41.844;26.082;2023-04-28T13:38:22;101031.00;;;21.56;29.88